sensor_id;sensor_type;location;lat;lon;timestamp;pressure;altitude;pressure_sealevel;temperature;humidity
2549;BME280;1284;53.520;10.248;2023-01-10T00:01:29;99947.38;;;9.82;100.00
2549;BME280;1284;53.520;10.248;2023-01-10T00:03:54;99955.69;;;9.70;100.00
2549;BME280;1284;53.520;10.248;2023-01-10T00:06:19;99955.00;;;9.76;100.00
2549;BME280;1284;53.520;10.248;2023-01-10T00:08:45;99960.22;;;9.66;100.00
2549;BME280;1284;53.520;10.248;2023-01-10T00:11:10;99971.66;;;9.56;100.00
2549;BME280;1284;53.520;10.248;2023-01-10T00:13:55;99969.41;;;9.61;100.00
2549;BME280;1284;53.520;10.248;2023-01-10T00:16:21;99970.19;;;9.62;100.00
2549;BME280;1284;53.520;10.248;2023-01-10T00:18:47;99982.53;;;9.66;100.00
2549;BME280;1284;53.520;10.248;2023-01-10T00:21:13;99992.28;;;9.78;100.00
2549;BME280;1284;53.520;10.248;2023-01-10T00:23:41;99989.50;;;9.71;100.00
2549;BME280;1284;53.520;10.248;2023-01-10T00:26:10;99983.38;;;9.74;100.00
2549;BME280;1284;53.520;10.248;2023-01-10T00:28:36;99994.09;;;9.70;100.00
2549;BME280;1284;53.520;10.248;2023-01-10T00:31:03;99996.00;;;9.70;99.70
2549;BME280;1284;53.520;10.248;2023-01-10T00:33:32;100008.72;;;9.73;99.71
2549;BME280;1284;53.520;10.248;2023-01-10T00:35:58;100006.03;;;9.73;99.79
2549;BME280;1284;53.520;10.248;2023-01-10T00:38:24;100005.59;;;9.67;100.00
2549;BME280;1284;53.520;10.248;2023-01-10T00:40:49;100010.72;;;9.50;100.00
2549;BME280;1284;53.520;10.248;2023-01-10T00:43:15;100008.53;;;9.59;100.00
2549;BME280;1284;53.520;10.248;2023-01-10T00:46:01;100011.63;;;9.61;100.00
2549;BME280;1284;53.520;10.248;2023-01-10T00:48:29;100008.25;;;9.64;100.00
2549;BME280;1284;53.520;10.248;2023-01-10T00:50:54;100016.75;;;9.69;99.60
2549;BME280;1284;53.520;10.248;2023-01-10T00:53:20;100017.44;;;9.63;100.00
2549;BME280;1284;53.520;10.248;2023-01-10T00:55:46;100023.66;;;9.70;100.00
2549;BME280;1284;53.520;10.248;2023-01-10T00:58:13;100024.28;;;9.60;100.00
2549;BME280;1284;53.520;10.248;2023-01-10T01:00:39;100031.94;;;9.58;100.00
2549;BME280;1284;53.520;10.248;2023-01-10T01:03:05;100040.16;;;9.69;100.00
2549;BME280;1284;53.520;10.248;2023-01-10T01:05:31;100054.06;;;9.74;99.97
2549;BME280;1284;53.520;10.248;2023-01-10T01:07:57;100052.38;;;9.63;99.44
2549;BME280;1284;53.520;10.248;2023-01-10T01:10:22;100053.59;;;9.69;100.00
2549;BME280;1284;53.520;10.248;2023-01-10T01:12:54;100058.94;;;9.65;100.00
2549;BME280;1284;53.520;10.248;2023-01-10T01:15:20;100057.44;;;9.68;99.73
2549;BME280;1284;53.520;10.248;2023-01-10T01:17:46;100072.25;;;9.58;99.73
2549;BME280;1284;53.520;10.248;2023-01-10T01:20:12;100081.94;;;9.63;99.76
2549;BME280;1284;53.520;10.248;2023-01-10T01:22:38;100085.50;;;9.70;99.75
2549;BME280;1284;53.520;10.248;2023-01-10T01:25:04;100097.41;;;9.69;99.68
2549;BME280;1284;53.520;10.248;2023-01-10T01:27:30;100105.53;;;9.73;99.88
2549;BME280;1284;53.520;10.248;2023-01-10T01:29:56;100109.69;;;9.70;99.14
2549;BME280;1284;53.520;10.248;2023-01-10T01:32:22;100115.50;;;9.72;98.99
2549;BME280;1284;53.520;10.248;2023-01-10T01:34:47;100129.66;;;9.69;99.38
2549;BME280;1284;53.520;10.248;2023-01-10T01:37:12;100134.22;;;9.65;99.56
2549;BME280;1284;53.520;10.248;2023-01-10T01:39:38;100130.28;;;9.59;99.49
2549;BME280;1284;53.520;10.248;2023-01-10T01:42:04;100142.16;;;9.58;99.44
2549;BME280;1284;53.520;10.248;2023-01-10T01:44:34;100145.38;;;9.45;99.02
2549;BME280;1284;53.520;10.248;2023-01-10T01:47:26;100160.06;;;9.51;99.51
2549;BME280;1284;53.520;10.248;2023-01-10T01:49:52;100160.13;;;9.54;99.37
2549;BME280;1284;53.520;10.248;2023-01-10T01:52:25;100164.81;;;9.57;99.45
2549;BME280;1284;53.520;10.248;2023-01-10T01:54:53;100167.84;;;9.56;98.52
2549;BME280;1284;53.520;10.248;2023-01-10T01:57:24;100167.72;;;9.49;98.79
2549;BME280;1284;53.520;10.248;2023-01-10T01:59:52;100171.94;;;9.46;98.19
2549;BME280;1284;53.520;10.248;2023-01-10T02:02:22;100165.81;;;9.49;97.90
2549;BME280;1284;53.520;10.248;2023-01-10T02:04:55;100174.09;;;9.41;98.35
2549;BME280;1284;53.520;10.248;2023-01-10T02:07:22;100173.31;;;9.37;97.77
2549;BME280;1284;53.520;10.248;2023-01-10T02:09:57;100189.16;;;9.23;97.77
2549;BME280;1284;53.520;10.248;2023-01-10T02:12:26;100193.13;;;9.29;97.68
2549;BME280;1284;53.520;10.248;2023-01-10T02:14:55;100194.28;;;9.31;98.58
2549;BME280;1284;53.520;10.248;2023-01-10T02:17:21;100204.63;;;9.29;98.08
2549;BME280;1284;53.520;10.248;2023-01-10T02:20:00;100212.03;;;9.36;97.73
2549;BME280;1284;53.520;10.248;2023-01-10T02:34:40;100225.03;;;9.34;97.72
2549;BME280;1284;53.520;10.248;2023-01-10T02:37:16;100229.59;;;9.30;97.81
2549;BME280;1284;53.520;10.248;2023-01-10T02:40:04;100223.94;;;9.35;98.02
2549;BME280;1284;53.520;10.248;2023-01-10T02:42:41;100233.91;;;9.34;98.05
2549;BME280;1284;53.520;10.248;2023-01-10T02:45:33;100238.31;;;9.23;97.45
2549;BME280;1284;53.520;10.248;2023-01-10T02:48:01;100241.91;;;9.31;97.41
2549;BME280;1284;53.520;10.248;2023-01-10T02:53:28;100251.97;;;9.37;96.93
2549;BME280;1284;53.520;10.248;2023-01-10T03:02:36;100257.31;;;9.15;97.77
2549;BME280;1284;53.520;10.248;2023-01-10T03:10:37;100272.44;;;9.23;97.62
2549;BME280;1284;53.520;10.248;2023-01-10T03:13:09;100260.13;;;9.22;98.08
2549;BME280;1284;53.520;10.248;2023-01-10T03:15:39;100268.91;;;9.19;97.28
2549;BME280;1284;53.520;10.248;2023-01-10T03:18:13;100275.69;;;9.13;97.96
2549;BME280;1284;53.520;10.248;2023-01-10T03:20:42;100273.50;;;9.18;98.06
2549;BME280;1284;53.520;10.248;2023-01-10T03:23:09;100280.69;;;9.14;97.56
2549;BME280;1284;53.520;10.248;2023-01-10T03:25:38;100282.09;;;9.27;97.92
2549;BME280;1284;53.520;10.248;2023-01-10T03:28:08;100284.78;;;9.27;97.12
2549;BME280;1284;53.520;10.248;2023-01-10T03:30:49;100299.78;;;9.28;96.64
2549;BME280;1284;53.520;10.248;2023-01-10T03:33:19;100297.75;;;9.22;97.70
2549;BME280;1284;53.520;10.248;2023-01-10T03:38:28;100305.78;;;9.22;97.57
2549;BME280;1284;53.520;10.248;2023-01-10T03:47:06;100310.75;;;9.20;97.08
2549;BME280;1284;53.520;10.248;2023-01-10T03:49:35;100309.19;;;9.19;97.34
2549;BME280;1284;53.520;10.248;2023-01-10T03:52:02;100321.91;;;9.22;97.59
2549;BME280;1284;53.520;10.248;2023-01-10T03:54:28;100332.34;;;9.23;96.96
2549;BME280;1284;53.520;10.248;2023-01-10T03:56:55;100331.91;;;9.21;96.81
2549;BME280;1284;53.520;10.248;2023-01-10T03:59:23;100339.59;;;9.03;96.77
2549;BME280;1284;53.520;10.248;2023-01-10T04:01:50;100343.69;;;8.97;96.91
2549;BME280;1284;53.520;10.248;2023-01-10T04:04:15;100347.91;;;8.98;97.25
2549;BME280;1284;53.520;10.248;2023-01-10T04:06:41;100366.69;;;8.98;96.68
2549;BME280;1284;53.520;10.248;2023-01-10T04:09:07;100369.81;;;9.00;96.67
2549;BME280;1284;53.520;10.248;2023-01-10T04:11:32;100376.34;;;8.99;96.64
2549;BME280;1284;53.520;10.248;2023-01-10T04:13:57;100374.75;;;8.98;96.57
2549;BME280;1284;53.520;10.248;2023-01-10T04:16:23;100385.78;;;8.93;96.69
2549;BME280;1284;53.520;10.248;2023-01-10T04:18:48;100387.75;;;8.96;96.91
2549;BME280;1284;53.520;10.248;2023-01-10T04:21:14;100388.66;;;8.85;96.79
2549;BME280;1284;53.520;10.248;2023-01-10T04:23:39;100390.28;;;8.89;96.81
2549;BME280;1284;53.520;10.248;2023-01-10T04:26:05;100397.38;;;8.97;96.43
2549;BME280;1284;53.520;10.248;2023-01-10T04:28:30;100396.53;;;8.93;96.98
2549;BME280;1284;53.520;10.248;2023-01-10T04:30:56;100396.88;;;8.92;97.06
2549;BME280;1284;53.520;10.248;2023-01-10T04:33:21;100405.69;;;8.92;95.95
2549;BME280;1284;53.520;10.248;2023-01-10T04:35:48;100411.63;;;8.82;96.07
2549;BME280;1284;53.520;10.248;2023-01-10T04:38:14;100417.25;;;8.77;96.60
2549;BME280;1284;53.520;10.248;2023-01-10T04:40:40;100420.19;;;8.72;96.41
2549;BME280;1284;53.520;10.248;2023-01-10T04:43:05;100429.38;;;8.71;96.94
2549;BME280;1284;53.520;10.248;2023-01-10T04:45:31;100424.19;;;8.63;96.76
2549;BME280;1284;53.520;10.248;2023-01-10T04:47:56;100442.34;;;8.69;97.30
2549;BME280;1284;53.520;10.248;2023-01-10T04:50:24;100440.81;;;8.68;97.08
2549;BME280;1284;53.520;10.248;2023-01-10T04:52:49;100441.16;;;8.67;96.40
2549;BME280;1284;53.520;10.248;2023-01-10T04:55:15;100445.03;;;8.69;96.88
2549;BME280;1284;53.520;10.248;2023-01-10T04:57:41;100446.69;;;8.74;97.03
2549;BME280;1284;53.520;10.248;2023-01-10T05:00:07;100459.25;;;8.70;97.17
2549;BME280;1284;53.520;10.248;2023-01-10T05:02:33;100460.81;;;8.71;96.85
2549;BME280;1284;53.520;10.248;2023-01-10T05:04:58;100465.06;;;8.72;97.48
2549;BME280;1284;53.520;10.248;2023-01-10T05:07:24;100475.00;;;8.71;97.37
2549;BME280;1284;53.520;10.248;2023-01-10T05:09:49;100464.38;;;8.75;96.61
2549;BME280;1284;53.520;10.248;2023-01-10T05:12:14;100468.25;;;8.77;97.01
2549;BME280;1284;53.520;10.248;2023-01-10T05:14:40;100474.75;;;8.76;96.98
2549;BME280;1284;53.520;10.248;2023-01-10T05:17:05;100478.19;;;8.77;97.24
2549;BME280;1284;53.520;10.248;2023-01-10T05:22:16;100488.25;;;8.80;97.61
2549;BME280;1284;53.520;10.248;2023-01-10T05:24:42;100490.94;;;8.80;97.89
2549;BME280;1284;53.520;10.248;2023-01-10T05:27:07;100491.47;;;8.85;97.80
2549;BME280;1284;53.520;10.248;2023-01-10T05:29:33;100500.03;;;8.91;97.56
2549;BME280;1284;53.520;10.248;2023-01-10T05:31:59;100511.72;;;8.98;97.48
2549;BME280;1284;53.520;10.248;2023-01-10T05:34:25;100519.34;;;8.96;97.47
2549;BME280;1284;53.520;10.248;2023-01-10T05:36:50;100516.94;;;8.91;97.38
2549;BME280;1284;53.520;10.248;2023-01-10T05:39:15;100522.31;;;8.91;97.11
2549;BME280;1284;53.520;10.248;2023-01-10T05:41:41;100525.06;;;8.95;97.13
2549;BME280;1284;53.520;10.248;2023-01-10T05:44:06;100532.34;;;8.94;97.52
2549;BME280;1284;53.520;10.248;2023-01-10T05:46:32;100536.94;;;8.94;97.17
2549;BME280;1284;53.520;10.248;2023-01-10T05:48:58;100537.63;;;8.91;97.43
2549;BME280;1284;53.520;10.248;2023-01-10T05:51:23;100541.53;;;8.93;97.53
2549;BME280;1284;53.520;10.248;2023-01-10T05:53:48;100547.84;;;8.85;96.87
2549;BME280;1284;53.520;10.248;2023-01-10T05:56:14;100548.81;;;8.93;97.10
2549;BME280;1284;53.520;10.248;2023-01-10T05:58:39;100545.34;;;8.92;96.89
2549;BME280;1284;53.520;10.248;2023-01-10T06:01:05;100547.34;;;8.95;97.47
2549;BME280;1284;53.520;10.248;2023-01-10T06:03:30;100559.19;;;8.94;97.16
2549;BME280;1284;53.520;10.248;2023-01-10T06:05:56;100559.72;;;8.84;96.85
2549;BME280;1284;53.520;10.248;2023-01-10T06:08:22;100567.50;;;8.89;97.26
2549;BME280;1284;53.520;10.248;2023-01-10T06:10:47;100568.03;;;8.79;97.10
2549;BME280;1284;53.520;10.248;2023-01-10T06:13:13;100572.50;;;8.75;96.72
2549;BME280;1284;53.520;10.248;2023-01-10T06:15:38;100573.22;;;8.72;96.95
2549;BME280;1284;53.520;10.248;2023-01-10T06:18:04;100576.13;;;8.67;96.91
2549;BME280;1284;53.520;10.248;2023-01-10T06:20:30;100589.91;;;8.66;96.99
2549;BME280;1284;53.520;10.248;2023-01-10T06:22:55;100579.78;;;8.59;96.88
2549;BME280;1284;53.520;10.248;2023-01-10T06:25:21;100576.97;;;8.56;97.47
2549;BME280;1284;53.520;10.248;2023-01-10T06:27:46;100585.47;;;8.58;97.31
2549;BME280;1284;53.520;10.248;2023-01-10T06:30:12;100595.97;;;8.63;97.06
2549;BME280;1284;53.520;10.248;2023-01-10T06:32:38;100601.00;;;8.64;96.81
2549;BME280;1284;53.520;10.248;2023-01-10T06:35:05;100611.97;;;8.59;96.62
2549;BME280;1284;53.520;10.248;2023-01-10T06:37:31;100623.63;;;8.51;97.11
2549;BME280;1284;53.520;10.248;2023-01-10T06:39:57;100614.63;;;8.44;97.38
2549;BME280;1284;53.520;10.248;2023-01-10T06:42:22;100610.13;;;8.48;97.04
2549;BME280;1284;53.520;10.248;2023-01-10T06:44:48;100618.50;;;8.46;97.43
2549;BME280;1284;53.520;10.248;2023-01-10T06:47:13;100621.19;;;8.46;96.87
2549;BME280;1284;53.520;10.248;2023-01-10T06:49:38;100634.50;;;8.43;96.61
2549;BME280;1284;53.520;10.248;2023-01-10T06:52:04;100634.59;;;8.46;96.91
2549;BME280;1284;53.520;10.248;2023-01-10T06:54:29;100642.19;;;8.44;96.90
2549;BME280;1284;53.520;10.248;2023-01-10T06:56:55;100640.66;;;8.43;96.75
2549;BME280;1284;53.520;10.248;2023-01-10T06:59:20;100642.56;;;8.31;96.86
2549;BME280;1284;53.520;10.248;2023-01-10T07:01:46;100646.41;;;8.30;96.73
2549;BME280;1284;53.520;10.248;2023-01-10T07:04:11;100651.66;;;8.26;96.84
2549;BME280;1284;53.520;10.248;2023-01-10T07:06:37;100646.47;;;8.21;96.89
2549;BME280;1284;53.520;10.248;2023-01-10T07:09:04;100653.44;;;8.22;97.43
2549;BME280;1284;53.520;10.248;2023-01-10T07:11:32;100661.91;;;8.24;97.00
2549;BME280;1284;53.520;10.248;2023-01-10T07:13:59;100676.13;;;8.25;96.63
2549;BME280;1284;53.520;10.248;2023-01-10T07:16:25;100669.97;;;8.24;96.39
2549;BME280;1284;53.520;10.248;2023-01-10T07:18:50;100674.78;;;8.18;96.98
2549;BME280;1284;53.520;10.248;2023-01-10T07:21:16;100677.13;;;8.20;97.26
2549;BME280;1284;53.520;10.248;2023-01-10T07:23:47;100674.66;;;8.15;96.93
2549;BME280;1284;53.520;10.248;2023-01-10T07:26:13;100678.47;;;8.14;97.06
2549;BME280;1284;53.520;10.248;2023-01-10T07:28:42;100677.03;;;8.16;96.97
2549;BME280;1284;53.520;10.248;2023-01-10T07:31:09;100686.63;;;8.17;96.68
2549;BME280;1284;53.520;10.248;2023-01-10T07:33:35;100686.84;;;8.12;96.56
2549;BME280;1284;53.520;10.248;2023-01-10T07:36:01;100685.38;;;8.15;96.53
2549;BME280;1284;53.520;10.248;2023-01-10T07:38:27;100691.88;;;8.14;96.62
2549;BME280;1284;53.520;10.248;2023-01-10T07:40:53;100692.88;;;8.09;97.45
2549;BME280;1284;53.520;10.248;2023-01-10T07:43:18;100693.22;;;8.20;96.94
2549;BME280;1284;53.520;10.248;2023-01-10T07:45:44;100698.22;;;8.21;96.79
2549;BME280;1284;53.520;10.248;2023-01-10T07:48:09;100705.19;;;8.23;97.00
2549;BME280;1284;53.520;10.248;2023-01-10T07:50:36;100705.75;;;8.28;96.84
2549;BME280;1284;53.520;10.248;2023-01-10T07:55:48;100708.31;;;8.25;96.80
2549;BME280;1284;53.520;10.248;2023-01-10T07:58:14;100718.38;;;8.28;97.00
2549;BME280;1284;53.520;10.248;2023-01-10T08:00:40;100705.94;;;8.23;97.01
2549;BME280;1284;53.520;10.248;2023-01-10T08:03:05;100710.19;;;8.24;97.22
2549;BME280;1284;53.520;10.248;2023-01-10T08:05:31;100709.53;;;8.27;97.56
2549;BME280;1284;53.520;10.248;2023-01-10T08:08:05;100712.66;;;8.29;97.52
2549;BME280;1284;53.520;10.248;2023-01-10T08:10:32;100709.31;;;8.32;97.06
2549;BME280;1284;53.520;10.248;2023-01-10T08:12:59;100712.78;;;8.33;97.66
2549;BME280;1284;53.520;10.248;2023-01-10T08:15:24;100717.81;;;8.34;97.24
2549;BME280;1284;53.520;10.248;2023-01-10T08:17:50;100715.00;;;8.43;97.58
2549;BME280;1284;53.520;10.248;2023-01-10T08:20:15;100717.47;;;8.48;97.05
2549;BME280;1284;53.520;10.248;2023-01-10T08:22:41;100727.16;;;8.52;97.26
2549;BME280;1284;53.520;10.248;2023-01-10T08:25:06;100729.94;;;8.56;97.44
2549;BME280;1284;53.520;10.248;2023-01-10T08:27:32;100738.13;;;8.59;97.26
2549;BME280;1284;53.520;10.248;2023-01-10T08:29:57;100743.59;;;8.63;96.91
2549;BME280;1284;53.520;10.248;2023-01-10T08:32:23;100743.69;;;8.66;96.53
2549;BME280;1284;53.520;10.248;2023-01-10T08:34:49;100740.22;;;8.66;96.92
2549;BME280;1284;53.520;10.248;2023-01-10T08:37:14;100749.97;;;8.58;97.30
2549;BME280;1284;53.520;10.248;2023-01-10T08:39:40;100754.78;;;8.65;97.52
2549;BME280;1284;53.520;10.248;2023-01-10T08:42:05;100751.31;;;8.64;96.95
2549;BME280;1284;53.520;10.248;2023-01-10T08:44:31;100752.09;;;8.65;97.29
2549;BME280;1284;53.520;10.248;2023-01-10T08:46:56;100754.78;;;8.65;97.12
2549;BME280;1284;53.520;10.248;2023-01-10T08:49:22;100755.66;;;8.69;98.00
2549;BME280;1284;53.520;10.248;2023-01-10T08:51:47;100765.06;;;8.75;97.32
2549;BME280;1284;53.520;10.248;2023-01-10T08:54:13;100764.25;;;8.74;97.32
2549;BME280;1284;53.520;10.248;2023-01-10T08:56:38;100774.41;;;8.81;97.65
2549;BME280;1284;53.520;10.248;2023-01-10T08:59:05;100781.81;;;8.84;97.24
2549;BME280;1284;53.520;10.248;2023-01-10T09:01:30;100784.13;;;8.85;97.24
2549;BME280;1284;53.520;10.248;2023-01-10T09:03:56;100784.34;;;8.92;97.44
2549;BME280;1284;53.520;10.248;2023-01-10T09:06:21;100793.28;;;8.96;96.18
2549;BME280;1284;53.520;10.248;2023-01-10T09:08:48;100795.41;;;8.91;97.15
2549;BME280;1284;53.520;10.248;2023-01-10T09:11:14;100790.03;;;8.91;97.58
2549;BME280;1284;53.520;10.248;2023-01-10T09:13:39;100785.72;;;8.86;97.33
2549;BME280;1284;53.520;10.248;2023-01-10T09:16:05;100776.63;;;8.91;97.55
2549;BME280;1284;53.520;10.248;2023-01-10T09:18:30;100758.81;;;8.98;96.96
2549;BME280;1284;53.520;10.248;2023-01-10T09:20:56;100755.81;;;9.00;97.55
2549;BME280;1284;53.520;10.248;2023-01-10T09:23:22;100752.34;;;8.87;97.09
2549;BME280;1284;53.520;10.248;2023-01-10T09:25:50;100759.59;;;8.99;96.89
2549;BME280;1284;53.520;10.248;2023-01-10T09:28:17;100760.13;;;9.04;97.13
2549;BME280;1284;53.520;10.248;2023-01-10T09:30:43;100763.78;;;9.12;95.72
2549;BME280;1284;53.520;10.248;2023-01-10T09:33:09;100767.41;;;9.04;96.31
2549;BME280;1284;53.520;10.248;2023-01-10T09:35:37;100777.13;;;9.08;96.09
2549;BME280;1284;53.520;10.248;2023-01-10T09:38:04;100787.88;;;9.08;96.76
2549;BME280;1284;53.520;10.248;2023-01-10T09:52:01;100831.50;;;9.18;95.83
2549;BME280;1284;53.520;10.248;2023-01-10T09:54:38;100827.63;;;9.03;96.39
2549;BME280;1284;53.520;10.248;2023-01-10T09:57:12;100835.59;;;8.99;97.38
2549;BME280;1284;53.520;10.248;2023-01-10T09:59:40;100842.72;;;9.07;96.76
2549;BME280;1284;53.520;10.248;2023-01-10T10:02:24;100853.56;;;9.11;96.75
2549;BME280;1284;53.520;10.248;2023-01-10T10:07:25;100839.78;;;9.13;96.12
2549;BME280;1284;53.520;10.248;2023-01-10T10:09:50;100839.34;;;9.10;96.37
2549;BME280;1284;53.520;10.248;2023-01-10T10:25:55;100838.53;;;9.22;95.75
2549;BME280;1284;53.520;10.248;2023-01-10T10:28:31;100843.47;;;9.20;95.91
2549;BME280;1284;53.520;10.248;2023-01-10T10:33:58;100833.25;;;9.26;95.39
2549;BME280;1284;53.520;10.248;2023-01-10T10:36:51;100833.06;;;9.19;96.17
2549;BME280;1284;53.520;10.248;2023-01-10T10:39:35;100831.56;;;9.33;95.31
2549;BME280;1284;53.520;10.248;2023-01-10T10:42:03;100837.28;;;9.32;95.23
2549;BME280;1284;53.520;10.248;2023-01-10T10:44:39;100832.00;;;9.35;95.28
2549;BME280;1284;53.520;10.248;2023-01-10T10:47:21;100835.56;;;9.39;95.15
2549;BME280;1284;53.520;10.248;2023-01-10T10:55:14;100836.59;;;9.35;95.21
2549;BME280;1284;53.520;10.248;2023-01-10T10:57:40;100843.28;;;9.41;94.80
2549;BME280;1284;53.520;10.248;2023-01-10T11:00:09;100844.41;;;9.40;95.27
2549;BME280;1284;53.520;10.248;2023-01-10T11:02:42;100844.84;;;9.42;95.07
2549;BME280;1284;53.520;10.248;2023-01-10T11:05:20;100845.97;;;9.41;95.06
2549;BME280;1284;53.520;10.248;2023-01-10T11:07:47;100847.44;;;9.38;95.01
2549;BME280;1284;53.520;10.248;2023-01-10T11:10:21;100849.53;;;9.45;94.37
2549;BME280;1284;53.520;10.248;2023-01-10T11:13:01;100845.94;;;9.25;94.97
2549;BME280;1284;53.520;10.248;2023-01-10T11:15:39;100850.25;;;9.30;95.05
2549;BME280;1284;53.520;10.248;2023-01-10T11:18:10;100854.84;;;9.29;95.24
2549;BME280;1284;53.520;10.248;2023-01-10T11:20:36;100858.88;;;9.35;94.52
2549;BME280;1284;53.520;10.248;2023-01-10T11:23:05;100864.38;;;9.39;94.74
2549;BME280;1284;53.520;10.248;2023-01-10T11:28:19;100862.09;;;9.41;94.47
2549;BME280;1284;53.520;10.248;2023-01-10T11:30:49;100864.56;;;9.46;94.33
2549;BME280;1284;53.520;10.248;2023-01-10T11:33:21;100868.91;;;9.50;94.01
2549;BME280;1284;53.520;10.248;2023-01-10T11:36:08;100871.59;;;9.50;93.49
2549;BME280;1284;53.520;10.248;2023-01-10T11:38:34;100868.47;;;9.48;94.01
2549;BME280;1284;53.520;10.248;2023-01-10T11:41:05;100865.88;;;9.52;93.51
2549;BME280;1284;53.520;10.248;2023-01-10T11:43:40;100865.34;;;9.46;93.92
2549;BME280;1284;53.520;10.248;2023-01-10T11:48:43;100872.59;;;9.58;94.42
2549;BME280;1284;53.520;10.248;2023-01-10T11:51:26;100872.84;;;9.68;93.54
2549;BME280;1284;53.520;10.248;2023-01-10T11:54:01;100869.97;;;9.61;94.04
2549;BME280;1284;53.520;10.248;2023-01-10T11:56:30;100862.00;;;9.65;93.77
2549;BME280;1284;53.520;10.248;2023-01-10T11:58:59;100861.31;;;9.68;93.45
2549;BME280;1284;53.520;10.248;2023-01-10T12:01:41;100858.44;;;9.61;94.32
2549;BME280;1284;53.520;10.248;2023-01-10T12:04:15;100863.56;;;9.66;93.88
2549;BME280;1284;53.520;10.248;2023-01-10T12:06:44;100866.69;;;9.68;94.22
2549;BME280;1284;53.520;10.248;2023-01-10T12:09:40;100870.69;;;9.74;93.70
2549;BME280;1284;53.520;10.248;2023-01-10T12:12:36;100863.34;;;9.71;94.08
2549;BME280;1284;53.520;10.248;2023-01-10T12:15:27;100859.75;;;9.67;94.11
2549;BME280;1284;53.520;10.248;2023-01-10T12:17:58;100864.34;;;9.66;94.42
2549;BME280;1284;53.520;10.248;2023-01-10T12:20:27;100864.75;;;9.53;94.09
2549;BME280;1284;53.520;10.248;2023-01-10T12:23:04;100858.88;;;9.63;94.12
2549;BME280;1284;53.520;10.248;2023-01-10T12:25:36;100858.00;;;9.59;94.96
2549;BME280;1284;53.520;10.248;2023-01-10T12:28:03;100851.69;;;9.67;94.54
2549;BME280;1284;53.520;10.248;2023-01-10T12:30:39;100860.81;;;9.78;93.77
2549;BME280;1284;53.520;10.248;2023-01-10T12:33:27;100865.44;;;9.77;93.98
2549;BME280;1284;53.520;10.248;2023-01-10T12:44:23;100874.25;;;9.78;94.17
2549;BME280;1284;53.520;10.248;2023-01-10T12:52:43;100863.78;;;9.73;93.83
2549;BME280;1284;53.520;10.248;2023-01-10T12:55:18;100857.03;;;9.79;93.57
2549;BME280;1284;53.520;10.248;2023-01-10T12:57:49;100856.09;;;9.87;92.68
2549;BME280;1284;53.520;10.248;2023-01-10T13:00:22;100855.97;;;9.83;93.00
2549;BME280;1284;53.520;10.248;2023-01-10T13:02:52;100876.03;;;9.86;93.25
2549;BME280;1284;53.520;10.248;2023-01-10T13:05:21;100869.63;;;9.90;93.36
2549;BME280;1284;53.520;10.248;2023-01-10T13:07:50;100867.06;;;9.82;93.34
2549;BME280;1284;53.520;10.248;2023-01-10T13:10:20;100861.47;;;9.87;93.18
2549;BME280;1284;53.520;10.248;2023-01-10T13:12:51;100870.06;;;9.92;93.56
2549;BME280;1284;53.520;10.248;2023-01-10T13:15:27;100869.00;;;9.97;92.70
2549;BME280;1284;53.520;10.248;2023-01-10T13:18:01;100867.47;;;9.96;93.00
2549;BME280;1284;53.520;10.248;2023-01-10T13:20:35;100866.88;;;10.02;92.77
2549;BME280;1284;53.520;10.248;2023-01-10T13:23:27;100858.69;;;9.99;92.67
2549;BME280;1284;53.520;10.248;2023-01-10T13:26:05;100865.88;;;9.95;93.04
2549;BME280;1284;53.520;10.248;2023-01-10T13:28:34;100867.28;;;9.89;92.71
2549;BME280;1284;53.520;10.248;2023-01-10T13:31:04;100862.53;;;9.98;92.92
2549;BME280;1284;53.520;10.248;2023-01-10T13:33:52;100866.88;;;10.02;92.21
2549;BME280;1284;53.520;10.248;2023-01-10T13:36:25;100861.28;;;9.95;92.01
2549;BME280;1284;53.520;10.248;2023-01-10T13:38:56;100858.44;;;10.04;91.62
2549;BME280;1284;53.520;10.248;2023-01-10T13:41:23;100852.72;;;10.06;91.54
2549;BME280;1284;53.520;10.248;2023-01-10T13:44:12;100843.28;;;10.12;91.68
2549;BME280;1284;53.520;10.248;2023-01-10T13:46:40;100850.63;;;9.99;91.71
2549;BME280;1284;53.520;10.248;2023-01-10T13:51:35;100863.84;;;10.04;91.35
2549;BME280;1284;53.520;10.248;2023-01-10T13:54:02;100865.72;;;10.03;91.02
2549;BME280;1284;53.520;10.248;2023-01-10T13:56:39;100868.78;;;10.02;91.06
2549;BME280;1284;53.520;10.248;2023-01-10T13:59:13;100866.31;;;9.97;90.89
2549;BME280;1284;53.520;10.248;2023-01-10T14:02:22;100864.66;;;9.77;91.34
2549;BME280;1284;53.520;10.248;2023-01-10T14:04:56;100867.06;;;9.82;91.59
2549;BME280;1284;53.520;10.248;2023-01-10T14:07:44;100872.84;;;9.96;91.49
2549;BME280;1284;53.520;10.248;2023-01-10T14:10:29;100876.50;;;10.03;90.52
2549;BME280;1284;53.520;10.248;2023-01-10T14:12:57;100881.00;;;9.99;90.83
2549;BME280;1284;53.520;10.248;2023-01-10T14:18:06;100891.31;;;9.97;90.55
2549;BME280;1284;53.520;10.248;2023-01-10T14:20:38;100881.19;;;9.91;90.38
2549;BME280;1284;53.520;10.248;2023-01-10T14:25:34;100874.66;;;9.92;90.06
2549;BME280;1284;53.520;10.248;2023-01-10T14:28:00;100879.59;;;9.90;90.63
2549;BME280;1284;53.520;10.248;2023-01-10T14:30:30;100878.53;;;9.79;90.48
2549;BME280;1284;53.520;10.248;2023-01-10T14:33:02;100869.31;;;9.80;90.50
2549;BME280;1284;53.520;10.248;2023-01-10T14:35:35;100864.00;;;9.68;90.93
2549;BME280;1284;53.520;10.248;2023-01-10T14:38:03;100868.81;;;9.74;91.36
2549;BME280;1284;53.520;10.248;2023-01-10T14:42:59;100863.16;;;9.79;90.87
2549;BME280;1284;53.520;10.248;2023-01-10T14:47:59;100858.47;;;9.76;90.73
2549;BME280;1284;53.520;10.248;2023-01-10T14:50:28;100845.81;;;9.77;90.75
2549;BME280;1284;53.520;10.248;2023-01-10T14:52:55;100844.69;;;9.78;90.06
2549;BME280;1284;53.520;10.248;2023-01-10T14:55:21;100842.19;;;9.85;89.75
2549;BME280;1284;53.520;10.248;2023-01-10T14:57:57;100840.19;;;9.82;90.59
2549;BME280;1284;53.520;10.248;2023-01-10T15:00:31;100840.81;;;9.91;89.78
2549;BME280;1284;53.520;10.248;2023-01-10T15:02:58;100839.75;;;9.80;89.86
2549;BME280;1284;53.520;10.248;2023-01-10T15:05:37;100843.94;;;9.77;90.86
2549;BME280;1284;53.520;10.248;2023-01-10T15:08:20;100843.56;;;9.79;91.05
2549;BME280;1284;53.520;10.248;2023-01-10T15:10:49;100833.50;;;9.76;90.77